Time;durP1;ratioP1;P1;durP2;ratioP2;P2;SDS_P1;SDS_P2;PMS_P1;PMS_P2;Temp;Humidity;BMP_temperature;BMP_pressure;BME280_temperature;BME280_humidity;BME280_pressure;Samples;Min_cycle;Max_cycle;Signal;HPM_P1;HPM_P2
2021/11/19 00:01:56;;;;;;;22.48;12.88;;;;;;;14.54;62.60;102738.47;5055741;28;20053;-61
2021/11/19 00:04:25;;;;;;;20.48;12.55;;;;;;;14.70;62.53;102742.78;5048230;28;20048;-64
2021/11/19 00:06:53;;;;;;;23.45;12.68;;;;;;;14.74;61.70;102743.84;5063339;28;20059;-63
2021/11/19 00:09:21;;;;;;;20.90;12.23;;;;;;;14.58;62.00;102742.31;5074809;28;20057;-62
2021/11/19 00:11:50;;;;;;;19.40;12.45;;;;;;;14.74;61.86;102748.56;5075056;28;20049;-63
2021/11/19 00:14:18;;;;;;;20.83;12.98;;;;;;;14.74;62.41;102743.84;5075215;28;20047;-64
2021/11/19 00:16:49;;;;;;;21.55;12.63;;;;;;;14.85;61.30;102739.03;5074330;28;20052;-61
2021/11/19 00:19:17;;;;;;;21.30;12.52;;;;;;;14.68;61.52;102739.44;5072180;28;20052;-63
2021/11/19 00:21:44;;;;;;;21.05;12.43;;;;;;;14.66;62.43;102747.25;5074886;28;20056;-63
2021/11/19 00:24:12;;;;;;;21.42;12.77;;;;;;;14.70;61.83;102742.78;5073812;28;20503;-64
2021/11/19 00:26:40;;;;;;;20.05;11.93;;;;;;;14.66;62.38;102730.63;5074385;28;20063;-65
2021/11/19 00:29:08;;;;;;;20.48;12.95;;;;;;;14.69;61.31;102741.13;5052376;28;20056;-63
2021/11/19 00:31:36;;;;;;;20.08;12.27;;;;;;;14.76;62.54;102730.50;5054567;28;20052;-62
2021/11/19 00:34:04;;;;;;;20.50;11.50;;;;;;;14.79;62.24;102735.47;5053256;28;20043;-64
2021/11/19 00:36:33;;;;;;;19.98;12.85;;;;;;;14.73;62.71;102733.88;5067191;28;20056;-61
2021/11/19 00:39:05;;;;;;;19.77;12.35;;;;;;;14.79;61.96;102729.94;5051334;28;20051;-64
2021/11/19 00:41:33;;;;;;;21.58;12.48;;;;;;;14.73;62.15;102724.72;5074429;28;20055;-62
2021/11/19 00:44:01;;;;;;;20.92;12.25;;;;;;;14.70;61.57;102730.88;5058798;28;20045;-61
2021/11/19 00:46:28;;;;;;;20.15;12.43;;;;;;;14.72;61.74;102721.13;5056325;28;20056;-64
2021/11/19 00:48:56;;;;;;;21.73;12.65;;;;;;;14.74;61.29;102716.09;5058535;28;20048;-65
2021/11/19 00:51:27;;;;;;;19.17;11.98;;;;;;;14.58;62.06;102723.75;5058168;28;20060;-65
2021/11/19 00:53:56;;;;;;;18.70;11.68;;;;;;;14.52;61.13;102721.31;5058372;28;20041;-61
2021/11/19 00:56:27;;;;;;;21.48;13.20;;;;;;;14.80;62.48;102725.22;5058734;28;20053;-64
2021/11/19 00:58:55;;;;;;;19.52;11.75;;;;;;;14.82;61.09;102728.53;5040287;28;20048;-64
2021/11/19 01:01:29;;;;;;;20.08;13.60;;;;;;;14.75;61.03;102726.06;5074588;28;20048;-63
2021/11/19 01:03:58;;;;;;;18.52;11.73;;;;;;;14.96;61.69;102712.84;5076664;28;20048;-62
2021/11/19 01:06:26;;;;;;;24.80;12.30;;;;;;;14.92;61.14;102711.75;5077378;28;20130;-61
2021/11/19 01:09:19;;;;;;;22.65;12.73;;;;;;;14.96;60.82;102713.63;5049871;28;20064;-62
2021/11/19 01:11:47;;;;;;;22.95;12.73;;;;;;;14.82;61.35;102718.22;5057325;28;20496;-61
2021/11/19 01:14:21;;;;;;;23.02;13.40;;;;;;;14.90;60.84;102711.22;5057400;28;20041;-65
2021/11/19 01:17:02;;;;;;;19.30;12.57;;;;;;;15.00;60.59;102706.38;5056853;28;20053;-64
2021/11/19 01:19:33;;;;;;;22.50;12.38;;;;;;;14.93;60.63;102711.47;5055517;28;20045;-65
2021/11/19 01:22:06;;;;;;;22.13;13.43;;;;;;;14.86;61.72;102704.59;5056950;28;20056;-62
2021/11/19 01:24:34;;;;;;;21.58;12.55;;;;;;;14.86;61.63;102707.38;5056963;28;20049;-64
2021/11/19 01:27:02;;;;;;;21.08;13.00;;;;;;;14.40;62.12;102709.78;5057035;28;20057;-62
2021/11/19 01:29:29;;;;;;;25.75;13.15;;;;;;;14.71;62.09;102710.31;5057616;28;20056;-65
2021/11/19 01:32:09;;;;;;;21.70;13.15;;;;;;;14.72;62.01;102696.16;5056439;28;20044;-64
2021/11/19 01:35:09;;;;;;;19.33;12.75;;;;;;;14.61;62.12;102700.13;5056829;28;20049;-61
2021/11/19 01:38:06;;;;;;;22.20;12.85;;;;;;;14.76;62.35;102697.22;5077145;28;20504;-61
2021/11/19 01:41:01;;;;;;;20.55;11.93;;;;;;;14.84;61.25;102698.50;5075713;28;20056;-63
2021/11/19 01:43:32;;;;;;;24.48;12.68;;;;;;;14.86;61.60;102702.66;5076405;28;20499;-61
2021/11/19 01:46:03;;;;;;;21.05;12.40;;;;;;;14.82;61.23;102690.47;5076100;28;20052;-65
2021/11/19 01:48:39;;;;;;;19.88;12.18;;;;;;;14.93;61.10;102694.81;5075873;28;20052;-64
2021/11/19 01:51:14;;;;;;;18.02;11.82;;;;;;;14.72;61.15;102693.38;5076124;28;20052;-65
2021/11/19 01:53:47;;;;;;;20.95;12.20;;;;;;;14.87;61.94;102692.41;5076470;28;20036;-65
2021/11/19 01:56:27;;;;;;;21.42;12.20;;;;;;;14.89;61.41;102696.50;5042564;28;20049;-65
2021/11/19 01:59:07;;;;;;;21.23;11.43;;;;;;;14.82;61.26;102690.47;5058572;28;20384;-62
2021/11/19 02:01:49;;;;;;;21.92;13.15;;;;;;;14.83;61.89;102692.16;5075772;28;20052;-64
2021/11/19 02:04:27;;;;;;;20.83;12.40;;;;;;;14.87;61.32;102693.19;5076361;28;20045;-64
2021/11/19 02:07:02;;;;;;;19.08;11.77;;;;;;;14.67;61.23;102698.97;5059955;28;20052;-61
2021/11/19 02:10:00;;;;;;;22.02;11.98;;;;;;;14.74;61.22;102681.97;5061551;28;20404;-60
2021/11/19 02:12:40;;;;;;;19.25;12.02;;;;;;;14.89;61.18;102687.38;5077273;28;20044;-64
2021/11/19 02:15:17;;;;;;;20.90;11.47;;;;;;;14.82;61.26;102687.72;5075881;28;20056;-63
2021/11/19 02:17:50;;;;;;;18.83;11.40;;;;;;;14.77;61.35;102685.00;5075551;28;20053;-62
2021/11/19 02:20:25;;;;;;;19.00;11.10;;;;;;;14.66;61.39;102683.47;5042209;28;20052;-64
2021/11/19 02:23:19;;;;;;;19.73;11.98;;;;;;;14.60;62.20;102695.72;5042722;28;20541;-65
2021/11/19 02:26:27;;;;;;;19.27;12.05;;;;;;;14.53;63.09;102687.75;5069496;28;20060;-63
2021/11/19 02:28:55;;;;;;;20.17;11.80;;;;;;;14.64;62.26;102677.38;5053210;28;20048;-61
2021/11/19 02:31:27;;;;;;;21.48;11.45;;;;;;;14.69;62.03;102685.66;5076143;28;20045;-61
2021/11/19 02:33:58;;;;;;;22.88;11.77;;;;;;;14.72;62.24;102685.06;5076998;28;20420;-64
2021/11/19 02:36:46;;;;;;;18.67;12.15;;;;;;;14.79;61.54;102682.75;5075708;28;20059;-62
2021/11/19 02:39:17;;;;;;;20.55;11.80;;;;;;;14.81;61.50;102680.53;5035850;28;20045;-62
2021/11/19 02:41:49;;;;;;;21.77;12.32;;;;;;;14.68;62.38;102686.75;5055020;28;20059;-61
2021/11/19 02:44:21;;;;;;;22.55;12.48;;;;;;;14.76;62.27;102686.13;5055516;28;20071;-62
2021/11/19 02:46:52;;;;;;;20.42;13.07;;;;;;;14.86;61.98;102683.22;5038377;28;20496;-65
2021/11/19 02:49:22;;;;;;;20.70;12.48;;;;;;;14.90;61.50;102683.47;5039512;28;20052;-63
2021/11/19 02:51:49;;;;;;;21.08;12.00;;;;;;;14.78;61.45;102683.91;5054917;28;20064;-62
2021/11/19 02:54:24;;;;;;;22.73;13.23;;;;;;;14.86;61.60;102686.00;5038433;28;20044;-62
2021/11/19 02:56:53;;;;;;;20.02;12.45;;;;;;;14.90;62.37;102680.69;5055406;28;20499;-62
2021/11/19 02:59:21;;;;;;;21.60;13.02;;;;;;;14.86;62.04;102683.22;5021638;28;20059;-65
2021/11/19 03:01:52;;;;;;;24.65;13.73;;;;;;;14.71;62.40;102680.63;5054237;28;20144;-61
2021/11/19 03:04:22;;;;;;;22.60;13.60;;;;;;;14.78;61.29;102677.50;5054816;28;20648;-64
2021/11/19 03:06:52;;;;;;;22.13;13.35;;;;;;;14.82;61.86;102679.38;5054926;28;20045;-62
2021/11/19 03:09:26;;;;;;;24.98;13.40;;;;;;;14.92;61.68;102675.69;5038602;28;20517;-65
2021/11/19 03:11:54;;;;;;;21.50;13.00;;;;;;;14.88;61.83;102672.69;5038404;28;20088;-65
2021/11/19 03:14:23;;;;;;;24.15;13.77;;;;;;;14.85;61.82;102672.44;5055134;28;20045;-63
2021/11/19 03:16:52;;;;;;;21.65;13.13;;;;;;;14.82;61.98;102671.06;5054420;28;20050;-61
2021/11/19 03:19:21;;;;;;;20.40;13.07;;;;;;;14.93;61.86;102669.00;5054924;28;20052;-64
2021/11/19 03:21:49;;;;;;;21.30;13.15;;;;;;;14.96;61.46;102668.44;5054442;28;20045;-61
2021/11/19 03:24:18;;;;;;;23.05;13.07;;;;;;;15.19;61.10;102668.41;5054648;28;20051;-62
2021/11/19 03:26:46;;;;;;;23.17;13.98;;;;;;;15.09;61.29;102664.94;5054579;28;20052;-62
2021/11/19 03:29:14;;;;;;;21.63;12.70;;;;;;;14.89;61.54;102665.19;5038242;28;20049;-64
2021/11/19 03:31:43;;;;;;;24.88;13.13;;;;;;;14.97;61.73;102670.91;5053682;28;20056;-65
2021/11/19 03:34:13;;;;;;;20.52;12.65;;;;;;;14.97;61.51;102676.47;5054718;28;20075;-64
2021/11/19 03:36:45;;;;;;;24.42;13.73;;;;;;;15.10;61.33;102675.72;5054476;28;20057;-63
2021/11/19 03:39:15;;;;;;;24.05;12.88;;;;;;;14.82;60.98;102667.47;5044757;28;20047;-63
2021/11/19 03:41:43;;;;;;;;;;;;;;;14.48;63.13;102675.88;5074155;28;20060;-61
2021/11/19 03:44:15;;;;;;;20.77;12.30;;;;;;;14.70;62.98;102662.31;5074020;28;19921;-61
2021/11/19 03:46:51;;;;;;;23.40;12.50;;;;;;;14.87;62.54;102661.88;5073959;28;20059;-65
2021/11/19 03:49:19;;;;;;;23.85;13.00;;;;;;;14.95;61.67;102664.81;5074137;28;20060;-61
2021/11/19 03:51:54;;;;;;;20.23;13.20;;;;;;;14.85;62.38;102659.41;5057705;28;20396;-63
2021/11/19 03:54:25;;;;;;;21.42;12.75;;;;;;;14.29;62.32;102663.84;5075421;28;20527;-62
2021/11/19 03:56:56;;;;;;;20.02;12.30;;;;;;;14.48;63.87;102662.00;5073294;28;20048;-62
2021/11/19 03:59:25;;;;;;;20.00;11.98;;;;;;;14.77;63.03;102660.03;5075247;28;20071;-65
2021/11/19 04:01:55;;;;;;;21.23;12.25;;;;;;;14.97;62.09;102664.53;5073472;28;20040;-64
2021/11/19 04:04:27;;;;;;;21.08;12.43;;;;;;;14.82;62.91;102659.97;5073609;28;20064;-64
2021/11/19 04:06:57;;;;;;;19.98;12.40;;;;;;;14.88;62.91;102660.75;5073949;28;20138;-64
2021/11/19 04:09:25;;;;;;;21.40;12.15;;;;;;;15.04;61.54;102654.72;5075248;28;20057;-64
2021/11/19 04:11:53;;;;;;;21.08;12.18;;;;;;;15.02;61.70;102664.47;5073791;28;20072;-62
2021/11/19 04:14:21;;;;;;;20.73;11.90;;;;;;;14.94;61.61;102662.34;5056840;28;20057;-65
2021/11/19 04:16:51;;;;;;;20.30;11.63;;;;;;;14.78;62.31;102658.94;5073412;28;20063;-62
2021/11/19 04:19:19;;;;;;;;;;;;;;;14.84;61.94;102656.91;5074008;28;20147;-62
2021/11/19 04:21:48;;;;;;;19.70;11.52;;;;;;;14.88;61.73;102666.28;5072727;28;19921;-62
2021/11/19 04:24:21;;;;;;;18.25;11.73;;;;;;;14.87;61.48;102665.44;5073043;28;20066;-61
2021/11/19 04:26:50;;;;;;;19.23;12.13;;;;;;;14.77;62.52;102664.78;5073875;28;20408;-62
2021/11/19 04:29:31;;;;;;;19.38;11.75;;;;;;;14.91;62.25;102663.75;5059226;28;20048;-63
2021/11/19 04:32:31;;;;;;;17.80;10.85;;;;;;;14.84;60.96;102662.44;5070842;28;20055;-61
2021/11/19 04:34:59;;;;;;;19.10;11.40;;;;;;;14.53;63.17;102671.13;5073401;28;20048;-62
2021/11/19 04:37:27;;;;;;;18.83;12.15;;;;;;;14.68;62.45;102663.75;5057164;28;20044;-65
2021/11/19 04:39:58;;;;;;;18.88;10.75;;;;;;;14.78;62.48;102666.41;5060517;28;20051;-61
2021/11/19 04:42:26;;;;;;;18.73;11.27;;;;;;;14.71;62.12;102661.22;5053261;28;20622;-63
2021/11/19 04:44:53;;;;;;;17.77;10.68;;;;;;;14.56;61.33;102662.19;5054897;28;20163;-61
2021/11/19 04:47:21;;;;;;;23.95;10.60;;;;;;;14.81;62.25;102661.09;5053418;28;20048;-62
2021/11/19 04:49:48;;;;;;;16.77;10.73;;;;;;;14.75;61.88;102667.81;5053432;28;20401;-64
2021/11/19 04:52:17;;;;;;;15.10;10.23;;;;;;;14.50;60.60;102665.31;5053229;28;20045;-62
2021/11/19 04:54:45;;;;;;;17.55;9.57;;;;;;;14.89;62.22;102665.19;5052755;28;20155;-61
2021/11/19 04:57:12;;;;;;;17.50;10.52;;;;;;;14.44;61.05;102663.69;5053480;28;20053;-62
2021/11/19 04:59:41;;;;;;;16.75;10.63;;;;;;;14.66;62.44;102662.09;5053282;28;20428;-61
2021/11/19 05:02:13;;;;;;;16.50;9.80;;;;;;;13.80;64.37;102669.50;5035789;28;20049;-62
2021/11/19 05:04:51;;;;;;;17.92;10.10;;;;;;;14.30;63.88;102671.03;5052754;28;20053;-61
2021/11/19 05:07:20;;;;;;;14.60;9.48;;;;;;;14.60;62.43;102660.50;5054725;28;20057;-62
2021/11/19 05:09:51;;;;;;;13.98;9.63;;;;;;;14.70;61.80;102664.28;5052994;28;20053;-61
2021/11/19 05:12:25;;;;;;;14.57;9.25;;;;;;;14.94;61.87;102665.94;5052545;28;20049;-62
2021/11/19 05:14:54;;;;;;;14.10;9.27;;;;;;;15.03;61.34;102661.38;5052576;28;20056;-62
2021/11/19 05:17:23;;;;;;;14.80;9.65;;;;;;;14.81;61.58;102660.25;5053119;28;20053;-62
2021/11/19 05:19:55;;;;;;;14.50;9.48;;;;;;;15.09;61.10;102653.81;5037219;28;20063;-61
2021/11/19 05:22:22;;;;;;;15.82;9.32;;;;;;;15.14;61.18;102650.97;5052810;28;20056;-62
2021/11/19 05:24:50;;;;;;;13.43;8.80;;;;;;;15.20;60.19;102647.84;5036169;28;20049;-61
2021/11/19 05:27:18;;;;;;;13.85;9.85;;;;;;;15.27;60.30;102648.31;5053225;28;20052;-62
2021/11/19 05:29:46;;;;;;;17.95;10.07;;;;;;;15.09;60.78;102645.50;5054374;28;20120;-61
2021/11/19 05:32:14;;;;;;;15.25;9.57;;;;;;;14.96;61.84;102644.25;5054044;28;20056;-61
2021/11/19 05:34:43;;;;;;;15.25;9.80;;;;;;;14.80;60.83;102640.03;5056451;28;20574;-63
2021/11/19 05:37:11;;;;;;;14.23;9.55;;;;;;;14.81;61.72;102643.63;5056777;28;20064;-62
2021/11/19 05:39:39;;;;;;;15.45;9.13;;;;;;;15.19;60.42;102635.09;5066944;28;20045;-61
2021/11/19 05:42:07;;;;;;;15.90;9.80;;;;;;;14.70;60.46;102647.66;5076285;28;20052;-61
2021/11/19 05:44:38;;;;;;;16.05;9.68;;;;;;;14.83;61.92;102641.38;5059952;28;20052;-63
2021/11/19 05:47:22;;;;;;;14.32;8.85;;;;;;;14.97;60.78;102650.66;5076450;28;20055;-64
2021/11/19 05:50:00;;;;;;;17.98;9.68;;;;;;;15.05;60.63;102650.81;5060132;28;20056;-64
2021/11/19 05:52:29;;;;;;;19.15;9.77;;;;;;;15.32;59.94;102648.25;5075871;28;20053;-61
2021/11/19 05:54:59;;;;;;;15.10;9.30;;;;;;;15.39;59.08;102654.28;5076225;28;20079;-61
2021/11/19 05:57:26;;;;;;;19.67;8.77;;;;;;;15.41;59.06;102657.56;5075446;28;20056;-62
2021/11/19 05:59:55;;;;;;;15.07;9.15;;;;;;;15.35;59.82;102661.53;5077380;28;20052;-61
2021/11/19 06:02:57;;;;;;;13.85;8.93;;;;;;;15.53;59.67;102657.97;5076966;28;20059;-64
2021/11/19 06:05:32;;;;;;;15.20;9.23;;;;;;;15.34;59.81;102657.09;5077275;28;20041;-62
2021/11/19 06:08:19;;;;;;;15.75;8.95;;;;;;;15.37;59.66;102664.84;5076151;28;20048;-61
2021/11/19 06:11:02;;;;;;;18.92;9.65;;;;;;;15.29;58.07;102659.94;5074914;28;20049;-62
2021/11/19 06:13:33;;;;;;;16.77;9.80;;;;;;;13.63;60.57;102673.75;5075833;28;20400;-61
2021/11/19 06:16:05;;;;;;;15.88;9.25;;;;;;;13.76;65.65;102670.34;5076681;28;20059;-61
2021/11/19 06:18:44;;;;;;;17.48;8.77;;;;;;;14.80;61.54;102669.72;5076017;28;20546;-62
2021/11/19 06:21:19;;;;;;;17.65;9.57;;;;;;;15.16;60.49;102668.19;5076122;28;20044;-62
2021/11/19 06:23:49;;;;;;;14.88;9.25;;;;;;;15.23;59.88;102660.31;5059041;28;20433;-61
2021/11/19 06:26:20;;;;;;;16.23;9.13;;;;;;;15.28;60.18;102663.00;5057014;28;20357;-62
2021/11/19 06:28:50;;;;;;;23.13;8.90;;;;;;;15.29;60.43;102665.50;5057153;28;20514;-62
2021/11/19 06:31:21;;;;;;;19.20;8.65;;;;;;;15.41;58.66;102674.25;5075565;28;20048;-61
2021/11/19 06:33:50;;;;;;;12.80;8.95;;;;;;;15.17;59.90;102667.03;5062126;28;20412;-61
2021/11/19 06:36:17;;;;;;;18.05;8.55;;;;;;;15.18;60.32;102675.09;5055631;28;20065;-63
2021/11/19 06:38:46;;;;;;;16.30;8.18;;;;;;;15.06;60.09;102673.84;5058074;28;20083;-63
2021/11/19 06:41:17;;;;;;;14.98;7.90;;;;;;;15.01;60.41;102676.69;5075666;28;20391;-62
2021/11/19 06:44:04;;;;;;;17.90;8.65;;;;;;;15.22;59.40;102673.34;5074624;28;20508;-61
2021/11/19 06:46:50;;;;;;;13.48;8.52;;;;;;;15.23;59.62;102685.28;5036015;28;20369;-63
2021/11/19 06:49:40;;;;;;;13.30;8.68;;;;;;;15.42;59.25;102678.69;5036860;28;20053;-62
2021/11/19 06:52:22;;;;;;;13.05;7.90;;;;;;;15.53;59.46;102677.41;5035340;28;20049;-63
2021/11/19 06:55:19;;;;;;;13.85;8.35;;;;;;;15.41;58.95;102674.25;5002099;28;20077;-62
2021/11/19 06:58:12;;;;;;;13.25;7.65;;;;;;;15.41;59.26;102673.44;5052133;28;20538;-62
2021/11/19 07:00:42;;;;;;;12.35;7.80;;;;;;;15.51;59.04;102673.28;5057397;28;20040;-62
2021/11/19 07:03:10;;;;;;;14.05;7.00;;;;;;;15.38;59.31;102671.19;5035592;28;20072;-60
2021/11/19 07:05:38;;;;;;;16.33;8.07;;;;;;;15.43;59.12;102677.56;5042522;28;20064;-61
2021/11/19 07:08:08;;;;;;;20.80;13.57;;;;;;;15.42;59.00;102681.47;5038279;28;20054;-62
2021/11/19 07:10:37;;;;;;;16.58;9.27;;;;;;;15.44;58.14;102682.00;5062543;28;20067;-62
2021/11/19 07:13:05;;;;;;;14.38;8.40;;;;;;;15.51;57.91;102690.78;5046097;28;20049;-61
2021/11/19 07:15:33;;;;;;;16.50;8.40;;;;;;;15.61;57.71;102695.38;5072227;28;20416;-61
2021/11/19 07:18:01;;;;;;;14.07;8.43;;;;;;;15.46;58.06;102695.59;5036013;28;20069;-60
2021/11/19 07:20:29;;;;;;;12.02;7.72;;;;;;;15.48;56.90;102710.00;5034504;28;20045;-61
2021/11/19 07:22:58;;;;;;;14.38;7.13;;;;;;;15.37;57.14;102709.28;5035644;28;20430;-59
2021/11/19 07:25:28;;;;;;;14.73;7.85;;;;;;;15.47;56.52;102711.09;5050915;28;20049;-60
2021/11/19 07:27:57;;;;;;;18.58;7.63;;;;;;;15.78;55.69;102712.34;5055554;28;20243;-61
2021/11/19 07:30:47;;;;;;;17.85;8.52;;;;;;;15.76;55.20;102711.81;5037854;28;20419;-60
2021/11/19 07:33:35;;;;;;;19.02;7.93;;;;;;;15.72;55.44;102719.94;5035195;28;20049;-62
2021/11/19 07:36:21;;;;;;;17.63;8.55;;;;;;;15.47;56.01;102717.50;5036227;28;20404;-62
2021/11/19 07:39:08;;;;;;;26.02;8.35;;;;;;;15.38;56.27;102721.19;5041275;28;20065;-61
2021/11/19 07:41:36;;;;;;;14.98;8.07;;;;;;;15.55;56.59;102722.38;5041519;28;20050;-62
2021/11/19 07:44:39;;;;;;;16.85;8.27;;;;;;;15.62;56.07;102727.59;5053170;28;20053;-62
2021/11/19 07:47:36;;;;;;;16.75;8.35;;;;;;;15.85;55.34;102725.88;5029827;28;20053;-63
2021/11/19 07:50:06;;;;;;;26.92;8.52;;;;;;;15.85;55.77;102725.88;5056592;28;20050;-62
2021/11/19 07:52:35;;;;;;;14.13;7.72;;;;;;;15.77;56.13;102730.16;5017754;28;20504;-63
2021/11/19 07:55:04;;;;;;;19.88;8.38;;;;;;;15.74;56.20;102726.00;5050537;28;20056;-64
2021/11/19 07:57:32;;;;;;;14.15;8.38;;;;;;;15.74;56.11;102727.97;5069520;28;20490;-63
2021/11/19 07:59:59;;;;;;;17.02;8.10;;;;;;;15.75;56.55;102733.22;5038316;28;20064;-62
2021/11/19 08:02:27;;;;;;;21.70;8.20;;;;;;;15.81;56.24;102728.44;5040863;28;20045;-63
2021/11/19 08:04:54;;;;;;;19.42;7.90;;;;;;;15.88;55.94;102731.66;5066392;28;20049;-62
2021/11/19 08:07:29;;;;;;;27.40;8.50;;;;;;;15.73;56.28;102732.69;5085698;28;20044;-62
2021/11/19 08:10:17;;;;;;;21.15;7.57;;;;;;;15.98;55.98;102739.00;5054499;28;20060;-65
2021/11/19 08:12:47;;;;;;;20.05;8.35;;;;;;;16.09;55.66;102741.31;5053001;28;20053;-65
2021/11/19 08:15:21;;;;;;;23.17;7.90;;;;;;;15.98;55.90;102736.22;5044089;28;20067;-64
2021/11/19 08:17:52;;;;;;;22.52;8.15;;;;;;;15.99;55.82;102737.91;5050786;28;20045;-65
2021/11/19 08:20:27;;;;;;;17.88;7.60;;;;;;;15.88;55.93;102744.72;5023821;28;20064;-62
2021/11/19 08:22:55;;;;;;;18.60;7.68;;;;;;;15.96;55.70;102738.47;5066204;28;20481;-62
2021/11/19 08:25:24;;;;;;;24.45;7.53;;;;;;;15.90;55.56;102736.91;5035420;28;20377;-65
2021/11/19 08:27:54;;;;;;;18.63;8.07;;;;;;;15.72;55.79;102739.41;5035232;28;20552;-62
2021/11/19 08:30:31;;;;;;;17.85;8.13;;;;;;;15.62;56.39;102742.28;5041083;28;20053;-65
2021/11/19 08:33:01;;;;;;;25.88;8.25;;;;;;;15.81;55.80;102735.94;5050046;28;20049;-65
2021/11/19 08:35:30;;;;;;;16.60;7.88;;;;;;;15.63;55.81;102741.19;5052990;28;20045;-64
2021/11/19 08:37:57;;;;;;;15.63;7.88;;;;;;;15.82;55.55;102737.56;5046709;28;20050;-62
2021/11/19 08:40:26;;;;;;;22.75;7.55;;;;;;;15.92;55.45;102743.00;5049527;28;20053;-62
2021/11/19 08:42:54;;;;;;;23.00;8.27;;;;;;;15.91;54.75;102731.06;5035344;28;20064;-62
2021/11/19 08:45:23;;;;;;;26.60;8.30;;;;;;;15.67;55.65;102744.19;5034733;28;20156;-63
2021/11/19 08:47:55;;;;;;;20.48;8.43;;;;;;;15.90;55.11;102731.38;5039415;28;20627;-66
2021/11/19 08:50:27;;;;;;;26.30;8.63;;;;;;;16.02;54.81;102731.72;5038045;28;20048;-65
2021/11/19 08:52:56;;;;;;;21.48;7.10;;;;;;;16.02;54.06;102731.72;5033352;28;20049;-65
2021/11/19 08:55:24;;;;;;;21.17;8.10;;;;;;;15.92;54.59;102731.88;5058275;28;20052;-65
2021/11/19 08:57:53;;;;;;;20.38;7.97;;;;;;;15.71;55.02;102732.16;5048242;28;20492;-65
2021/11/19 09:00:28;;;;;;;19.27;7.47;;;;;;;15.85;55.00;102737.00;5042254;28;20052;-64
2021/11/19 09:02:59;;;;;;;20.88;7.78;;;;;;;15.76;54.64;102732.09;5037486;28;20064;-63
2021/11/19 09:05:29;;;;;;;27.50;8.20;;;;;;;15.94;54.60;102736.00;5044714;28;20053;-62
2021/11/19 09:07:56;;;;;;;23.70;8.07;;;;;;;15.98;54.20;102733.44;5033857;28;20053;-63
2021/11/19 09:10:24;;;;;;;25.88;8.05;;;;;;;15.98;53.89;102742.63;5039039;28;20054;-63
2021/11/19 09:12:52;;;;;;;28.77;7.93;;;;;;;15.96;54.23;102741.25;5042780;28;20082;-62
2021/11/19 09:15:22;;;;;;;42.10;17.27;;;;;;;16.20;53.57;102740.06;5055320;28;20045;-65
2021/11/19 09:18:12;;;;;;;38.72;14.68;;;;;;;15.94;53.92;102741.56;5039019;28;20053;-63
2021/11/19 09:20:58;;;;;;;22.67;9.02;;;;;;;15.89;54.37;102738.03;5042853;28;20049;-64
2021/11/19 09:23:30;;;;;;;19.88;7.65;;;;;;;16.03;53.86;102748.09;5044286;28;20041;-63
2021/11/19 09:25:59;;;;;;;25.30;8.13;;;;;;;16.06;53.67;102747.50;5050326;28;20053;-63
2021/11/19 09:28:28;;;;;;;24.52;7.63;;;;;;;16.09;53.72;102746.88;5025643;28;20051;-62
2021/11/19 09:31:00;;;;;;;24.02;8.75;;;;;;;16.17;53.43;102753.72;5044822;28;20057;-63
2021/11/19 09:33:28;;;;;;;27.38;8.70;;;;;;;16.31;53.24;102754.63;5057110;28;20083;-62
2021/11/19 09:35:56;;;;;;;24.80;7.97;;;;;;;16.25;53.13;102751.09;5040307;28;20054;-62
2021/11/19 09:38:25;;;;;;;29.45;8.07;;;;;;;16.20;53.39;102756.72;5053085;28;20041;-64
2021/11/19 09:41:21;;;;;;;15.23;6.82;;;;;;;16.19;53.18;102749.53;5037697;28;20045;-63
2021/11/19 09:43:48;;;;;;;34.20;13.95;;;;;;;16.25;53.70;102753.88;5053445;28;20049;-63
2021/11/19 09:46:55;;;;;;;26.20;11.00;;;;;;;16.53;52.75;102744.53;5055948;28;20048;-63
2021/11/19 09:49:47;;;;;;;24.17;7.78;;;;;;;16.52;52.55;102750.41;5042994;28;20053;-62
2021/11/19 09:52:33;;;;;;;22.63;7.97;;;;;;;16.41;53.21;102748.88;5055271;28;20056;-62
2021/11/19 09:55:29;;;;;;;23.60;8.40;;;;;;;16.52;53.44;102747.63;5054288;28;20075;-62
2021/11/19 09:57:59;;;;;;;18.60;7.75;;;;;;;16.57;53.13;102747.53;5045725;28;20057;-62
2021/11/19 10:01:05;;;;;;;30.98;8.93;;;;;;;16.54;52.94;102745.38;5050623;28;20080;-62
2021/11/19 10:03:42;;;;;;;26.17;8.68;;;;;;;16.66;52.92;102749.34;5054091;28;20045;-62
2021/11/19 10:06:20;;;;;;;27.60;8.15;;;;;;;16.75;52.55;102752.25;5055613;28;20049;-62
2021/11/19 10:09:03;;;;;;;34.85;9.75;;;;;;;16.28;53.68;102744.94;5016189;28;20059;-62
2021/11/19 10:11:42;;;;;;;22.35;10.15;;;;;;;16.21;54.12;102741.72;5054119;28;20057;-62
2021/11/19 10:14:30;;;;;;;29.35;11.68;;;;;;;16.53;53.44;102741.75;5055504;28;20056;-63
2021/11/19 10:17:26;;;;;;;23.23;9.10;;;;;;;16.62;53.13;102739.09;5056236;28;20416;-62
2021/11/19 10:20:23;;;;;;;27.40;11.98;;;;;;;16.71;52.36;102742.84;5053842;28;20053;-62
2021/11/19 10:22:56;;;;;;;28.70;11.73;;;;;;;16.50;52.87;102735.97;5037900;28;20042;-64
2021/11/19 10:25:34;;;;;;;22.35;8.75;;;;;;;16.74;52.86;102742.22;5036338;28;20045;-64
2021/11/19 10:28:16;;;;;;;30.05;9.40;;;;;;;16.85;52.25;102732.56;5035274;28;20065;-64
2021/11/19 10:30:48;;;;;;;25.30;8.27;;;;;;;16.84;52.11;102739.28;5072393;28;20068;-65
2021/11/19 10:33:30;;;;;;;25.50;9.18;;;;;;;16.97;51.52;102740.41;5039079;28;20432;-62
2021/11/19 10:36:34;;;;;;;25.45;8.43;;;;;;;16.93;51.67;102736.59;5035177;28;20568;-64
2021/11/19 10:39:32;;;;;;;24.30;9.40;;;;;;;16.72;52.10;102727.78;5068623;28;20038;-64
2021/11/19 10:42:33;;;;;;;29.95;8.70;;;;;;;16.68;52.70;102727.56;5036718;28;20080;-64
2021/11/19 10:45:09;;;;;;;23.23;7.75;;;;;;;16.76;52.38;102726.88;5036151;28;20061;-65
2021/11/19 10:47:49;;;;;;;26.88;8.20;;;;;;;16.94;51.55;102724.31;5048978;28;20060;-62
2021/11/19 10:50:32;;;;;;;17.52;7.25;;;;;;;16.88;51.75;102730.00;5055798;28;20049;-63
2021/11/19 10:53:31;;;;;;;28.77;8.15;;;;;;;16.95;51.88;102721.22;5051140;28;20053;-62
2021/11/19 10:56:23;;;;;;;24.45;7.60;;;;;;;17.01;51.60;102713.59;5039020;28;20057;-62
2021/11/19 10:59:21;;;;;;;29.40;8.05;;;;;;;16.91;51.73;102720.22;5036403;28;20037;-62
2021/11/19 11:02:26;;;;;;;22.90;7.78;;;;;;;16.72;52.43;102720.25;5042130;28;20053;-62
2021/11/19 11:04:59;;;;;;;27.08;7.10;;;;;;;16.90;51.70;102718.53;5009065;28;20057;-63
2021/11/19 11:07:28;;;;;;;23.05;6.95;;;;;;;17.03;51.67;102717.75;5058981;28;20052;-62
2021/11/19 11:10:15;;;;;;;21.55;7.03;;;;;;;17.30;50.96;102717.75;5055520;28;20045;-63
2021/11/19 11:12:43;;;;;;;25.13;7.78;;;;;;;17.28;50.52;102714.44;5026543;28;20064;-62
2021/11/19 11:15:23;;;;;;;25.67;7.30;;;;;;;17.09;50.46;102721.22;5054248;28;20057;-63
2021/11/19 11:18:09;;;;;;;20.92;7.25;;;;;;;16.76;51.59;102709.34;5034722;28;20049;-64
2021/11/19 11:20:42;;;;;;;25.65;7.22;;;;;;;16.77;51.85;102709.03;5042376;28;20052;-64
2021/11/19 11:23:26;;;;;;;21.52;7.88;;;;;;;16.82;52.01;102710.91;5031269;28;20037;-63
2021/11/19 11:25:57;;;;;;;26.17;8.05;;;;;;;17.05;51.33;102704.31;5035409;28;20046;-65
2021/11/19 11:28:50;;;;;;;27.27;8.35;;;;;;;17.08;51.35;102691.75;5057378;28;20048;-63
2021/11/19 11:31:36;;;;;;;23.05;8.57;;;;;;;17.14;51.08;102702.47;5035631;28;20063;-63
2021/11/19 11:34:10;;;;;;;25.45;8.63;;;;;;;17.15;51.33;102703.31;5042881;28;20052;-64
2021/11/19 11:37:05;;;;;;;29.88;8.95;;;;;;;17.24;50.96;102693.09;5049474;28;20075;-63
2021/11/19 11:39:55;;;;;;;22.30;8.50;;;;;;;17.10;50.84;102689.47;5045370;28;20407;-63
2021/11/19 11:42:35;;;;;;;27.58;8.50;;;;;;;17.06;51.05;102689.28;5037713;28;20052;-62
2021/11/19 11:45:31;;;;;;;20.48;8.10;;;;;;;17.42;50.74;102684.59;5082087;28;20056;-64
2021/11/19 11:48:16;;;;;;;26.90;8.10;;;;;;;17.44;50.34;102681.50;5040101;28;20052;-63
2021/11/19 11:50:57;;;;;;;;;;;;;;;17.27;50.58;102684.09;5038911;28;20057;-63